Pagina principale
METAR-TAF:

METAR-TAF

Aeroporti :

Ivalo, Finlandia

latitudine: 68-37N, longitudine: 027-25E, altezza: 147 m

Osservazione

Il bollettino è stato emesso 10 minuti fa, alle 17:50 UTC
Vento 6 kt da nord/nord-est, variando fra nord e nord-est
Temperature 11°C
Umidità 76%
Pressione 1004 hPa
Visibilità 10 km o più
Nuvoloso ad un'altezza di 2100 ft
Cielo coperto ad un'altezza di 3700 ft

METAR: EFIV 101750Z AUTO 03006KT 350V050 9999 BKN021 OVC037 11/07 Q1004

Ora: 21:00 (18:00 UTC)


TAF: mancante

Osservazioni e previsioni meteorologiche di più di 4000 aeroporti (messaggi METAR e TAF).

Le stazioni disponibili sono rappresentate dai dischi gialli e rossi sulla carta.

Puntare il mouse per vedere il nome della stazione.

Clicca sopra per visualizzare le osservazioni e previsioni meteorologiche.

Per cambiare la mappa : fare clic sui pulsanti verdi con una croce nera per ingrandire, il pulsante verde con un trattino per diminuire, o sulla freccia verde per le mappe adiacenti.


METAR-TAF: